Home   Weather   Germany   Pirna   Past weeks
Flag for Germany

Past Weather in Pirna, Saxony, Germany — Yesterday and Last 2 Weeks

Currently: 64 °F. Sunny. (Weather station: Dresden-Klotzsche, Germany). See more current weather

Past Weather in Pirna — Graph

°F

Pirna Temperature Yesterday

Maximum temperature yesterday: 66 °F (at 5:20 pm)
Minimum temperature yesterday: 48 °F (at 2:50 am)
Average temperature yesterday: 58 °F

High & Low Weather Summary for the Past Weeks

 TemperatureHumidityPressure
High79 °F (Jun 8, 5:50 pm)100% (Jun 1, 1:20 am)30.07 "Hg (Jun 1, 1:20 am)
Low46 °F (Jun 12, 4:20 am)36% (Jun 8, 1:20 pm)29.65 "Hg (Jun 10, 7:20 pm)
Average61 °F69%29.92 "Hg
* Reported May 31 9:20 pm — Jun 15 9:20 pm, Pirna. Weather by CustomWeather, © 2024

Note: Actual official high and low records may vary slightly from our data, if they occured in-between our weather recording intervals... More about our weather records

Pirna Weather History for the Previous 24 Hours

Scroll right to see more
 ConditionsComfort  
Time TempWeatherWind HumidityBarometerVisibility
9:20 pm
Sat, Jun 15
64 °FSunny.3 mph52%29.83 "Hg10 mi
8:50 pm66 °FSunny.3 mph49%29.80 "Hg10 mi
7:50 pm70 °FPassing clouds.9 mph43%29.80 "HgN/A
7:20 pm70 °FPassing clouds.8 mph46%29.80 "HgN/A
6:50 pm70 °FPassing clouds.10 mph43%29.80 "HgN/A
6:20 pm70 °FPassing clouds.12 mph46%29.80 "HgN/A
5:50 pm70 °FPassing clouds.9 mph46%29.80 "HgN/A
5:20 pm70 °FPassing clouds.10 mph46%29.80 "HgN/A
4:50 pm70 °FPassing clouds.15 mph46%29.80 "HgN/A
3:20 pm68 °FScattered clouds.13 mph60%29.77 "HgN/A
2:50 pm68 °FPassing clouds.13 mph60%29.77 "HgN/A
2:20 pm66 °FPassing clouds.13 mph64%29.77 "HgN/A
1:50 pm66 °FScattered clouds.10 mph73%29.77 "HgN/A
12:20 pm61 °FPassing clouds.7 mph88%29.77 "HgN/A
11:50 am61 °FSunny.7 mph88%29.77 "Hg10 mi
11:20 am61 °FLight rain. Clear.9 mph88%29.77 "HgN/A
10:20 am61 °FLight rain. Overcast.8 mph83%29.80 "HgN/A
9:20 am64 °FLight rain. Clear.13 mph68%29.74 "HgN/A
8:50 am68 °FSunny.13 mph56%29.71 "Hg10 mi
8:20 am64 °FSunny.12 mph64%29.71 "Hg10 mi
7:50 am63 °FSunny.9 mph68%29.71 "Hg10 mi
7:20 am63 °FSunny.12 mph68%29.71 "Hg10 mi
6:50 am61 °FSunny.13 mph68%29.71 "Hg10 mi
6:20 am61 °FSunny.12 mph68%29.71 "Hg10 mi
5:20 am59 °FSunny.12 mph72%29.74 "Hg10 mi
4:50 am59 °FPassing clouds.10 mph72%29.74 "HgN/A
4:20 am59 °FClear.10 mph72%29.77 "Hg10 mi
2:50 am61 °FPassing clouds.8 mph68%29.80 "HgN/A
2:20 am61 °FPassing clouds.9 mph72%29.80 "HgN/A
1:50 am59 °FClear.10 mph72%29.83 "Hg10 mi
1:20 am59 °FClear.8 mph72%29.83 "Hg10 mi
12:20 am59 °FClear.6 mph77%29.86 "Hg10 mi
11:50 pm
Fri, Jun 14
59 °FClear.9 mph72%29.86 "Hg10 mi
11:20 pm61 °FClear.9 mph68%29.86 "Hg10 mi
10:50 pm61 °FClear.9 mph68%29.86 "Hg10 mi
10:20 pm63 °FPassing clouds.8 mph64%29.86 "HgN/A
Weather by CustomWeather, © 2024

See weather overview